BCS080 EGKK-EKCH
Flight info
| Callsign | BCS080 |
|---|---|
| Flight time | 1h 24m |
| Altitude | 41000 |
| Route | FRANE M604 PAAVO Q295 SOMVA DCT MAVAS DCT DOSUR DCT TALSA/N0443F390 P729 TUDLO |
| Aircraft | A333/H-SDE3GHIJ2J3J5M1RVWXY/LB2D1 |
Departure
| Time | 2026-04-25 19:38 |
|---|---|
| Airport | London Gatwick Airport (EGKK) |
Arrival
| Time | 2026-04-25 21:02 |
|---|---|
| Airport | Copenhagen Kastrup Airport (EKCH) |
| Time | Latitude | Longitude | Altitude | Speed | Heading |
|---|---|---|---|---|---|
| 2026-04-25 19:04 | 51.15536 | -0.18578 | 215 ft | 0 kts | 170° |
| 2026-04-25 19:22 | 51.15585 | -0.18582 | 214 ft | 4 kts | 192° |
| 2026-04-25 19:23 | 51.15610 | -0.18567 | 217 ft | 4 kts | 223° |
| 2026-04-25 19:23 | 51.15621 | -0.18538 | 222 ft | 0 kts | 257° |
| 2026-04-25 19:29 | 51.15614 | -0.18585 | 215 ft | 6 kts | 257° |
| 2026-04-25 19:29 | 51.15602 | -0.18670 | 216 ft | 9 kts | 257° |
| 2026-04-25 19:29 | 51.15586 | -0.18776 | 217 ft | 9 kts | 247° |
| 2026-04-25 19:29 | 51.15537 | -0.18823 | 218 ft | 9 kts | 182° |
| 2026-04-25 19:30 | 51.15468 | -0.18804 | 217 ft | 11 kts | 168° |
| 2026-04-25 19:30 | 51.15384 | -0.18775 | 220 ft | 14 kts | 167° |
| 2026-04-25 19:30 | 51.15284 | -0.18740 | 214 ft | 16 kts | 167° |
| 2026-04-25 19:30 | 51.15181 | -0.18706 | 218 ft | 14 kts | 174° |
| 2026-04-25 19:31 | 51.15124 | -0.18794 | 216 ft | 13 kts | 253° |
| 2026-04-25 19:31 | 51.15102 | -0.18943 | 212 ft | 15 kts | 257° |
| 2026-04-25 19:31 | 51.15078 | -0.19116 | 215 ft | 17 kts | 257° |
| 2026-04-25 19:31 | 51.15048 | -0.19341 | 217 ft | 25 kts | 257° |
| 2026-04-25 19:32 | 51.15007 | -0.19635 | 215 ft | 30 kts | 257° |
| 2026-04-25 19:32 | 51.14961 | -0.19970 | 209 ft | 32 kts | 257° |
| 2026-04-25 19:32 | 51.14915 | -0.20300 | 212 ft | 29 kts | 257° |
| 2026-04-25 19:32 | 51.14901 | -0.20407 | 216 ft | 29 kts | 257° |
| 2026-04-25 19:33 | 51.14840 | -0.20842 | 219 ft | 20 kts | 258° |
| 2026-04-25 19:33 | 51.14808 | -0.21070 | 218 ft | 21 kts | 257° |
| 2026-04-25 19:33 | 51.14771 | -0.21276 | 211 ft | 20 kts | 257° |
| 2026-04-25 19:33 | 51.14706 | -0.21396 | 218 ft | 14 kts | 177° |
| 2026-04-25 19:34 | 51.14630 | -0.21338 | 216 ft | 8 kts | 164° |
| 2026-04-25 19:34 | 51.14626 | -0.21336 | 215 ft | 0 kts | 165° |
| 2026-04-25 19:34 | 51.14625 | -0.21336 | 220 ft | 3 kts | 165° |
| 2026-04-25 19:35 | 51.14570 | -0.21304 | 211 ft | 12 kts | 152° |
| 2026-04-25 19:35 | 51.14523 | -0.21190 | 217 ft | 13 kts | 91° |
| 2026-04-25 19:35 | 51.14532 | -0.21085 | 216 ft | 0 kts | 78° |
| 2026-04-25 19:37 | 51.14539 | -0.21031 | 219 ft | 18 kts | 78° |
| 2026-04-25 19:37 | 51.14618 | -0.20462 | 215 ft | 90 kts | 77° |
| 2026-04-25 19:37 | 51.14803 | -0.19127 | 219 ft | 155 kts | 78° |
| 2026-04-25 19:37 | 51.15087 | -0.17265 | 729 ft | 176 kts | 75° |
| 2026-04-25 19:38 | 51.15370 | -0.15413 | 1818 ft | 168 kts | 75° |
| 2026-04-25 19:38 | 51.15644 | -0.13515 | 2473 ft | 190 kts | 73° |
| 2026-04-25 19:38 | 51.15957 | -0.11388 | 2999 ft | 213 kts | 73° |
| 2026-04-25 19:38 | 51.16317 | -0.08937 | 3501 ft | 235 kts | 73° |
| 2026-04-25 19:39 | 51.16691 | -0.06345 | 4176 ft | 245 kts | 73° |
| 2026-04-25 19:39 | 51.16987 | -0.03595 | 4707 ft | 260 kts | 82° |
| 2026-04-25 19:39 | 51.17032 | -0.00664 | 4958 ft | 265 kts | 87° |
| 2026-04-25 19:39 | 51.16986 | 0.02272 | 5018 ft | 266 kts | 88° |
| 2026-04-25 19:40 | 51.16923 | 0.05219 | 5023 ft | 266 kts | 88° |
| 2026-04-25 19:40 | 51.16861 | 0.08171 | 5025 ft | 267 kts | 88° |
| 2026-04-25 19:40 | 51.16926 | 0.11107 | 5129 ft | 263 kts | 72° |
| 2026-04-25 19:40 | 51.17822 | 0.13596 | 5696 ft | 264 kts | 40° |
| 2026-04-25 19:41 | 51.19444 | 0.14977 | 6651 ft | 268 kts | 15° |
| 2026-04-25 19:41 | 51.21287 | 0.15659 | 7579 ft | 274 kts | 9° |
| 2026-04-25 19:41 | 51.23168 | 0.16265 | 8600 ft | 277 kts | 8° |
| 2026-04-25 19:41 | 51.23805 | 0.16475 | 8948 ft | 278 kts | 9° |
| 2026-04-25 19:42 | 51.26974 | 0.17552 | 10373 ft | 284 kts | 9° |
| 2026-04-25 19:42 | 51.28921 | 0.18234 | 11275 ft | 288 kts | 9° |
| 2026-04-25 19:42 | 51.30883 | 0.18935 | 12190 ft | 290 kts | 9° |
| 2026-04-25 19:42 | 51.32869 | 0.19657 | 12861 ft | 293 kts | 11° |
| 2026-04-25 19:43 | 51.34866 | 0.20370 | 13189 ft | 296 kts | 11° |
| 2026-04-25 19:43 | 51.36860 | 0.21057 | 13240 ft | 297 kts | 10° |
| 2026-04-25 19:43 | 51.38891 | 0.21755 | 13236 ft | 298 kts | 10° |
| 2026-04-25 19:43 | 51.40917 | 0.22452 | 13235 ft | 298 kts | 10° |
| 2026-04-25 19:44 | 51.42948 | 0.23150 | 13211 ft | 298 kts | 10° |
| 2026-04-25 19:44 | 51.44976 | 0.23846 | 13212 ft | 298 kts | 10° |
| 2026-04-25 19:44 | 51.47007 | 0.24542 | 13212 ft | 298 kts | 10° |
| 2026-04-25 19:44 | 51.49040 | 0.25239 | 13212 ft | 298 kts | 10° |
| 2026-04-25 19:45 | 51.51070 | 0.25935 | 13213 ft | 299 kts | 10° |
| 2026-04-25 19:45 | 51.53100 | 0.26632 | 13211 ft | 298 kts | 10° |
| 2026-04-25 19:45 | 51.55134 | 0.27329 | 13325 ft | 299 kts | 10° |
| 2026-04-25 19:45 | 51.57177 | 0.28032 | 13879 ft | 302 kts | 10° |
| 2026-04-25 19:46 | 51.59237 | 0.28750 | 14741 ft | 304 kts | 10° |
| 2026-04-25 19:46 | 51.61316 | 0.29481 | 15579 ft | 307 kts | 10° |
| 2026-04-25 19:46 | 51.63412 | 0.30224 | 16378 ft | 311 kts | 10° |
| 2026-04-25 19:46 | 51.65531 | 0.30979 | 16964 ft | 313 kts | 10° |
| 2026-04-25 19:47 | 51.67639 | 0.31878 | 17194 ft | 317 kts | 21° |
| 2026-04-25 19:47 | 51.69483 | 0.33848 | 17215 ft | 322 kts | 43° |
| 2026-04-25 19:47 | 51.70478 | 0.35629 | 17213 ft | 324 kts | 49° |
| 2026-04-25 19:47 | 51.72344 | 0.39471 | 17213 ft | 326 kts | 50° |
| 2026-04-25 19:48 | 51.73724 | 0.42370 | 17214 ft | 326 kts | 50° |
| 2026-04-25 19:48 | 51.74639 | 0.44295 | 17216 ft | 328 kts | 50° |
| 2026-04-25 19:48 | 51.76076 | 0.47311 | 17427 ft | 350 kts | 50° |
| 2026-04-25 19:48 | 51.77602 | 0.50505 | 17773 ft | 367 kts | 50° |
| 2026-04-25 19:49 | 51.79185 | 0.53822 | 18358 ft | 377 kts | 50° |
| 2026-04-25 19:49 | 51.80249 | 0.56054 | 18768 ft | 382 kts | 50° |
| 2026-04-25 19:49 | 51.82427 | 0.60648 | 19657 ft | 388 kts | 50° |
| 2026-04-25 19:49 | 51.84050 | 0.64098 | 20281 ft | 392 kts | 50° |
| 2026-04-25 19:50 | 51.87373 | 0.71212 | 21547 ft | 400 kts | 50° |
| 2026-04-25 19:50 | 51.89053 | 0.74832 | 22182 ft | 404 kts | 50° |
| 2026-04-25 19:50 | 51.90749 | 0.78503 | 22808 ft | 408 kts | 50° |
| 2026-04-25 19:51 | 51.92451 | 0.82204 | 23413 ft | 412 kts | 50° |
| 2026-04-25 19:51 | 51.94167 | 0.85945 | 23977 ft | 416 kts | 51° |
| 2026-04-25 19:51 | 51.95878 | 0.89755 | 24458 ft | 420 kts | 52° |
| 2026-04-25 19:51 | 51.97559 | 0.93674 | 24981 ft | 424 kts | 53° |
| 2026-04-25 19:52 | 51.99213 | 0.97659 | 25457 ft | 427 kts | 54° |
| 2026-04-25 19:52 | 52.00852 | 1.01677 | 25963 ft | 430 kts | 55° |
| 2026-04-25 19:52 | 52.02499 | 1.05749 | 26445 ft | 432 kts | 55° |
| 2026-04-25 19:52 | 52.04158 | 1.09855 | 26915 ft | 436 kts | 55° |
| 2026-04-25 19:53 | 52.05827 | 1.13982 | 27406 ft | 438 kts | 55° |
| 2026-04-25 19:53 | 52.07510 | 1.18143 | 27890 ft | 441 kts | 56° |
| 2026-04-25 19:53 | 52.09203 | 1.22322 | 28344 ft | 444 kts | 56° |
| 2026-04-25 19:53 | 52.10907 | 1.26532 | 28791 ft | 447 kts | 56° |
| 2026-04-25 19:54 | 52.12624 | 1.30779 | 29261 ft | 450 kts | 56° |
| 2026-04-25 19:54 | 52.14325 | 1.34989 | 29706 ft | 453 kts | 56° |
| 2026-04-25 19:54 | 52.16059 | 1.39291 | 30165 ft | 456 kts | 56° |
| 2026-04-25 19:54 | 52.17239 | 1.42222 | 30438 ft | 458 kts | 56° |
| 2026-04-25 19:55 | 52.19561 | 1.48001 | 30940 ft | 462 kts | 56° |
| 2026-04-25 19:55 | 52.21319 | 1.52387 | 31327 ft | 464 kts | 56° |
| 2026-04-25 19:55 | 52.23094 | 1.56822 | 31725 ft | 466 kts | 56° |
| 2026-04-25 19:55 | 52.24870 | 1.61265 | 32089 ft | 469 kts | 56° |
| 2026-04-25 19:56 | 52.26650 | 1.65728 | 32555 ft | 469 kts | 56° |
| 2026-04-25 19:56 | 52.28405 | 1.70135 | 33162 ft | 465 kts | 56° |
| 2026-04-25 19:56 | 52.30159 | 1.74550 | 33792 ft | 462 kts | 56° |
| 2026-04-25 19:56 | 52.31900 | 1.78940 | 34307 ft | 460 kts | 56° |
| 2026-04-25 19:57 | 52.33638 | 1.83328 | 34703 ft | 460 kts | 56° |
| 2026-04-25 19:57 | 52.35378 | 1.87728 | 35084 ft | 460 kts | 56° |
| 2026-04-25 19:57 | 52.37109 | 1.92114 | 35474 ft | 459 kts | 56° |
| 2026-04-25 19:57 | 52.38837 | 1.96499 | 35867 ft | 459 kts | 56° |
| 2026-04-25 19:58 | 52.40567 | 2.00895 | 36253 ft | 458 kts | 56° |
| 2026-04-25 19:58 | 52.42288 | 2.05278 | 36631 ft | 457 kts | 56° |
| 2026-04-25 19:58 | 52.44009 | 2.09667 | 36986 ft | 457 kts | 56° |
| 2026-04-25 19:58 | 52.45728 | 2.14060 | 37338 ft | 457 kts | 56° |
| 2026-04-25 19:59 | 52.47441 | 2.18446 | 37677 ft | 457 kts | 56° |
| 2026-04-25 19:59 | 52.49154 | 2.22839 | 38029 ft | 457 kts | 56° |
| 2026-04-25 19:59 | 52.50864 | 2.27229 | 38394 ft | 456 kts | 56° |
| 2026-04-25 19:59 | 52.52591 | 2.31673 | 38792 ft | 455 kts | 56° |
| 2026-04-25 20:00 | 52.54266 | 2.35993 | 39089 ft | 454 kts | 56° |
| 2026-04-25 20:00 | 52.55413 | 2.38953 | 39277 ft | 454 kts | 56° |
| 2026-04-25 20:00 | 52.57657 | 2.44755 | 39579 ft | 454 kts | 56° |
| 2026-04-25 20:00 | 52.59351 | 2.49142 | 39802 ft | 455 kts | 56° |
| 2026-04-25 20:01 | 52.62740 | 2.57944 | 40263 ft | 455 kts | 56° |
| 2026-04-25 20:01 | 52.64432 | 2.62351 | 40496 ft | 455 kts | 56° |
| 2026-04-25 20:01 | 52.66128 | 2.66776 | 40729 ft | 455 kts | 56° |
| 2026-04-25 20:02 | 52.67816 | 2.71187 | 40943 ft | 456 kts | 56° |
| 2026-04-25 20:02 | 52.69505 | 2.75610 | 41157 ft | 456 kts | 56° |
| 2026-04-25 20:02 | 52.71196 | 2.80044 | 41273 ft | 459 kts | 56° |
| 2026-04-25 20:02 | 52.72904 | 2.84527 | 41275 ft | 464 kts | 56° |
| 2026-04-25 20:03 | 52.76352 | 2.93608 | 41275 ft | 466 kts | 56° |
| 2026-04-25 20:03 | 52.79788 | 3.02696 | 41277 ft | 466 kts | 56° |
| 2026-04-25 20:04 | 52.83211 | 3.11781 | 41273 ft | 465 kts | 56° |
| 2026-04-25 20:04 | 52.86603 | 3.20812 | 41272 ft | 465 kts | 56° |
| 2026-04-25 20:05 | 52.90015 | 3.29921 | 41273 ft | 465 kts | 56° |
| 2026-04-25 20:05 | 52.93426 | 3.39040 | 41271 ft | 465 kts | 56° |
| 2026-04-25 20:06 | 52.96828 | 3.48177 | 41272 ft | 465 kts | 56° |
| 2026-04-25 20:06 | 53.00215 | 3.57314 | 41265 ft | 464 kts | 56° |
| 2026-04-25 20:07 | 53.03591 | 3.66451 | 41273 ft | 464 kts | 56° |
| 2026-04-25 20:07 | 53.06933 | 3.75533 | 41276 ft | 464 kts | 56° |
| 2026-04-25 20:08 | 53.10286 | 3.84679 | 41259 ft | 458 kts | 56° |
| 2026-04-25 20:08 | 53.13551 | 3.93621 | 41265 ft | 448 kts | 56° |
| 2026-04-25 20:09 | 53.16778 | 4.02481 | 41262 ft | 447 kts | 56° |
| 2026-04-25 20:09 | 53.19996 | 4.11350 | 41260 ft | 447 kts | 56° |
| 2026-04-25 20:10 | 53.23205 | 4.20228 | 41263 ft | 446 kts | 56° |
| 2026-04-25 20:10 | 53.26406 | 4.29113 | 41263 ft | 446 kts | 56° |
| 2026-04-25 20:11 | 53.29601 | 4.38014 | 41253 ft | 446 kts | 56° |
| 2026-04-25 20:11 | 53.32787 | 4.46922 | 41255 ft | 446 kts | 56° |
| 2026-04-25 20:12 | 53.35943 | 4.55780 | 41246 ft | 446 kts | 56° |
| 2026-04-25 20:12 | 53.38072 | 4.61769 | 41248 ft | 446 kts | 56° |
| 2026-04-25 20:13 | 53.42286 | 4.73674 | 41244 ft | 446 kts | 56° |
| 2026-04-25 20:13 | 53.45447 | 4.82640 | 41244 ft | 446 kts | 56° |
| 2026-04-25 20:14 | 53.48604 | 4.91626 | 41241 ft | 446 kts | 56° |
| 2026-04-25 20:14 | 53.51751 | 5.00618 | 41240 ft | 446 kts | 56° |
| 2026-04-25 20:15 | 53.54893 | 5.09627 | 41244 ft | 446 kts | 56° |
| 2026-04-25 20:15 | 53.58004 | 5.18581 | 41242 ft | 446 kts | 57° |
| 2026-04-25 20:16 | 53.61128 | 5.27604 | 41237 ft | 445 kts | 57° |
| 2026-04-25 20:16 | 53.64235 | 5.36613 | 41235 ft | 443 kts | 57° |
| 2026-04-25 20:17 | 53.67321 | 5.45590 | 41227 ft | 442 kts | 57° |
| 2026-04-25 20:17 | 53.70395 | 5.54568 | 41227 ft | 441 kts | 57° |
| 2026-04-25 20:18 | 53.73462 | 5.63556 | 41222 ft | 441 kts | 57° |
| 2026-04-25 20:18 | 53.76521 | 5.72555 | 41222 ft | 442 kts | 57° |
| 2026-04-25 20:19 | 53.79572 | 5.81562 | 41222 ft | 441 kts | 57° |
| 2026-04-25 20:19 | 53.82597 | 5.90527 | 41224 ft | 440 kts | 57° |
| 2026-04-25 20:20 | 53.85627 | 5.99536 | 41228 ft | 441 kts | 57° |
| 2026-04-25 20:20 | 53.88662 | 6.08594 | 41225 ft | 442 kts | 57° |
| 2026-04-25 20:21 | 53.91693 | 6.17676 | 41233 ft | 442 kts | 57° |
| 2026-04-25 20:21 | 53.94714 | 6.26763 | 41233 ft | 442 kts | 57° |
| 2026-04-25 20:22 | 53.96714 | 6.32796 | 41234 ft | 442 kts | 57° |
| 2026-04-25 20:22 | 54.00730 | 6.44954 | 41227 ft | 443 kts | 57° |
| 2026-04-25 20:23 | 54.03739 | 6.54107 | 41228 ft | 443 kts | 57° |
| 2026-04-25 20:23 | 54.06754 | 6.63308 | 41246 ft | 447 kts | 57° |
| 2026-04-25 20:24 | 54.09777 | 6.72570 | 41224 ft | 447 kts | 57° |
| 2026-04-25 20:24 | 54.12789 | 6.81837 | 41216 ft | 446 kts | 57° |
| 2026-04-25 20:25 | 54.15795 | 6.91119 | 41224 ft | 446 kts | 56° |
| 2026-04-25 20:25 | 54.18768 | 7.00335 | 41213 ft | 446 kts | 56° |
| 2026-04-25 20:26 | 54.21753 | 7.09621 | 41214 ft | 446 kts | 56° |
| 2026-04-25 20:26 | 54.24733 | 7.18928 | 41205 ft | 446 kts | 57° |
| 2026-04-25 20:27 | 54.27705 | 7.28247 | 41200 ft | 446 kts | 57° |
| 2026-04-25 20:27 | 54.30663 | 7.37561 | 41200 ft | 444 kts | 56° |
| 2026-04-25 20:28 | 54.33604 | 7.46853 | 41201 ft | 443 kts | 56° |
| 2026-04-25 20:28 | 54.36541 | 7.56168 | 41196 ft | 444 kts | 56° |
| 2026-04-25 20:29 | 54.39453 | 7.65439 | 41194 ft | 444 kts | 56° |
| 2026-04-25 20:29 | 54.42378 | 7.74790 | 41184 ft | 444 kts | 56° |
| 2026-04-25 20:30 | 54.45297 | 7.84157 | 41187 ft | 444 kts | 56° |
| 2026-04-25 20:30 | 54.48206 | 7.93530 | 41187 ft | 445 kts | 56° |
| 2026-04-25 20:31 | 54.51108 | 8.02916 | 41172 ft | 444 kts | 56° |
| 2026-04-25 20:31 | 54.54006 | 8.12326 | 41177 ft | 444 kts | 56° |
| 2026-04-25 20:32 | 54.56412 | 8.20166 | 41148 ft | 445 kts | 56° |
| 2026-04-25 20:32 | 54.59300 | 8.29609 | 41146 ft | 445 kts | 56° |
| 2026-04-25 20:33 | 54.62179 | 8.39064 | 41145 ft | 445 kts | 56° |
| 2026-04-25 20:33 | 54.64568 | 8.46938 | 41140 ft | 445 kts | 56° |
| 2026-04-25 20:34 | 54.67921 | 8.58032 | 41138 ft | 445 kts | 56° |
| 2026-04-25 20:34 | 54.70776 | 8.67521 | 41185 ft | 445 kts | 55° |
| 2026-04-25 20:35 | 54.73619 | 8.77006 | 41128 ft | 446 kts | 55° |
| 2026-04-25 20:35 | 54.76472 | 8.86562 | 41121 ft | 446 kts | 55° |
| 2026-04-25 20:36 | 54.79320 | 8.96142 | 41111 ft | 447 kts | 55° |
| 2026-04-25 20:36 | 54.82157 | 9.05726 | 41111 ft | 447 kts | 56° |
| 2026-04-25 20:37 | 54.84988 | 9.15325 | 41091 ft | 447 kts | 56° |
| 2026-04-25 20:37 | 54.87797 | 9.24897 | 40853 ft | 442 kts | 56° |
| 2026-04-25 20:38 | 54.89189 | 9.29655 | 40392 ft | 442 kts | 54° |
| 2026-04-25 20:38 | 54.90565 | 9.34359 | 39880 ft | 443 kts | 54° |
| 2026-04-25 20:38 | 54.91957 | 9.39134 | 39502 ft | 441 kts | 54° |
| 2026-04-25 20:38 | 54.93338 | 9.43883 | 39097 ft | 438 kts | 53° |
| 2026-04-25 20:39 | 54.94707 | 9.48601 | 38621 ft | 435 kts | 53° |
| 2026-04-25 20:39 | 54.96059 | 9.53272 | 37746 ft | 430 kts | 53° |
| 2026-04-25 20:39 | 54.97405 | 9.57924 | 36500 ft | 431 kts | 53° |
| 2026-04-25 20:39 | 54.98303 | 9.61021 | 35609 ft | 434 kts | 53° |
| 2026-04-25 20:40 | 55.00131 | 9.67345 | 34314 ft | 440 kts | 53° |
| 2026-04-25 20:40 | 55.01504 | 9.72112 | 33637 ft | 443 kts | 53° |
| 2026-04-25 20:40 | 55.02893 | 9.76946 | 32948 ft | 447 kts | 53° |
| 2026-04-25 20:40 | 55.04286 | 9.81807 | 32242 ft | 451 kts | 53° |
| 2026-04-25 20:41 | 55.05689 | 9.86718 | 31502 ft | 453 kts | 53° |
| 2026-04-25 20:41 | 55.07094 | 9.91652 | 31012 ft | 454 kts | 53° |
| 2026-04-25 20:41 | 55.08502 | 9.96599 | 30471 ft | 456 kts | 53° |
| 2026-04-25 20:41 | 55.09915 | 10.01577 | 29879 ft | 459 kts | 53° |
| 2026-04-25 20:42 | 55.11335 | 10.06587 | 29348 ft | 461 kts | 52° |
| 2026-04-25 20:42 | 55.12754 | 10.11613 | 28730 ft | 460 kts | 52° |
| 2026-04-25 20:42 | 55.14172 | 10.16645 | 28131 ft | 460 kts | 52° |
| 2026-04-25 20:42 | 55.15569 | 10.21608 | 27546 ft | 462 kts | 53° |
| 2026-04-25 20:43 | 55.16990 | 10.26662 | 26959 ft | 464 kts | 53° |
| 2026-04-25 20:43 | 55.18416 | 10.31749 | 26370 ft | 466 kts | 53° |
| 2026-04-25 20:43 | 55.19844 | 10.36854 | 25664 ft | 468 kts | 53° |
| 2026-04-25 20:43 | 55.21275 | 10.41981 | 24796 ft | 465 kts | 53° |
| 2026-04-25 20:44 | 55.22639 | 10.46946 | 24413 ft | 438 kts | 53° |
| 2026-04-25 20:44 | 55.23909 | 10.51598 | 23946 ft | 411 kts | 52° |
| 2026-04-25 20:44 | 55.25119 | 10.56000 | 23358 ft | 391 kts | 51° |
| 2026-04-25 20:44 | 55.26279 | 10.60202 | 22771 ft | 373 kts | 51° |
| 2026-04-25 20:45 | 55.27366 | 10.64298 | 22319 ft | 375 kts | 54° |
| 2026-04-25 20:45 | 55.28260 | 10.68687 | 21966 ft | 386 kts | 59° |
| 2026-04-25 20:45 | 55.29055 | 10.73186 | 21451 ft | 386 kts | 60° |
| 2026-04-25 20:45 | 55.29816 | 10.77655 | 20891 ft | 386 kts | 60° |
| 2026-04-25 20:46 | 55.30582 | 10.82168 | 20403 ft | 385 kts | 59° |
| 2026-04-25 20:46 | 55.31344 | 10.86665 | 19816 ft | 385 kts | 59° |
| 2026-04-25 20:46 | 55.32106 | 10.91163 | 19265 ft | 383 kts | 59° |
| 2026-04-25 20:46 | 55.32865 | 10.95647 | 18729 ft | 382 kts | 59° |
| 2026-04-25 20:47 | 55.33609 | 11.00102 | 18179 ft | 379 kts | 59° |
| 2026-04-25 20:47 | 55.34347 | 11.04541 | 17605 ft | 375 kts | 60° |
| 2026-04-25 20:47 | 55.35072 | 11.08921 | 17078 ft | 371 kts | 60° |
| 2026-04-25 20:47 | 55.35792 | 11.13265 | 16595 ft | 369 kts | 59° |
| 2026-04-25 20:48 | 55.36508 | 11.17588 | 16011 ft | 367 kts | 59° |
| 2026-04-25 20:48 | 55.37215 | 11.21875 | 15496 ft | 363 kts | 60° |
| 2026-04-25 20:48 | 55.37914 | 11.26126 | 14978 ft | 360 kts | 60° |
| 2026-04-25 20:48 | 55.38606 | 11.30343 | 14433 ft | 357 kts | 60° |
| 2026-04-25 20:49 | 55.39291 | 11.34521 | 13947 ft | 354 kts | 60° |
| 2026-04-25 20:49 | 55.39969 | 11.38668 | 13410 ft | 351 kts | 61° |
| 2026-04-25 20:49 | 55.40612 | 11.42659 | 13259 ft | 335 kts | 61° |
| 2026-04-25 20:49 | 55.41227 | 11.46504 | 13176 ft | 319 kts | 60° |
| 2026-04-25 20:50 | 55.41815 | 11.50172 | 13073 ft | 304 kts | 60° |
| 2026-04-25 20:50 | 55.42384 | 11.53695 | 12864 ft | 296 kts | 60° |
| 2026-04-25 20:50 | 55.42957 | 11.57176 | 12458 ft | 296 kts | 60° |
| 2026-04-25 20:50 | 55.43529 | 11.60652 | 12092 ft | 294 kts | 61° |
| 2026-04-25 20:51 | 55.44288 | 11.63895 | 11787 ft | 280 kts | 49° |
| 2026-04-25 20:51 | 55.45319 | 11.66782 | 11561 ft | 277 kts | 45° |
| 2026-04-25 20:51 | 55.46409 | 11.69586 | 11299 ft | 276 kts | 45° |
| 2026-04-25 20:51 | 55.47501 | 11.72369 | 11054 ft | 275 kts | 45° |
| 2026-04-25 20:52 | 55.48587 | 11.75147 | 10825 ft | 275 kts | 46° |
| 2026-04-25 20:52 | 55.49305 | 11.76993 | 10628 ft | 274 kts | 47° |
| 2026-04-25 20:52 | 55.50532 | 11.80968 | 10173 ft | 286 kts | 68° |
| 2026-04-25 20:52 | 55.50608 | 11.84497 | 9768 ft | 300 kts | 94° |
| 2026-04-25 20:53 | 55.49887 | 11.87980 | 9356 ft | 305 kts | 111° |
| 2026-04-25 20:53 | 55.48888 | 11.91275 | 8946 ft | 303 kts | 114° |
| 2026-04-25 20:53 | 55.47867 | 11.94509 | 8557 ft | 300 kts | 114° |
| 2026-04-25 20:53 | 55.46852 | 11.97708 | 8177 ft | 297 kts | 114° |
| 2026-04-25 20:54 | 55.45847 | 12.00885 | 7811 ft | 294 kts | 114° |
| 2026-04-25 20:54 | 55.44854 | 12.04017 | 7438 ft | 291 kts | 114° |
| 2026-04-25 20:54 | 55.43870 | 12.07113 | 7057 ft | 288 kts | 114° |
| 2026-04-25 20:54 | 55.42893 | 12.10181 | 6690 ft | 285 kts | 114° |
| 2026-04-25 20:55 | 55.41940 | 12.13175 | 6332 ft | 283 kts | 114° |
| 2026-04-25 20:55 | 55.40983 | 12.16183 | 5917 ft | 281 kts | 114° |
| 2026-04-25 20:55 | 55.40033 | 12.19169 | 5515 ft | 279 kts | 114° |
| 2026-04-25 20:55 | 55.39082 | 12.22151 | 5098 ft | 278 kts | 114° |
| 2026-04-25 20:56 | 55.38147 | 12.25109 | 4712 ft | 275 kts | 111° |
| 2026-04-25 20:56 | 55.37656 | 12.28259 | 4286 ft | 262 kts | 85° |
| 2026-04-25 20:56 | 55.38049 | 12.31251 | 4038 ft | 246 kts | 56° |
| 2026-04-25 20:56 | 55.39194 | 12.33359 | 4002 ft | 237 kts | 27° |
| 2026-04-25 20:57 | 55.40701 | 12.34470 | 4009 ft | 235 kts | 16° |
| 2026-04-25 20:57 | 55.42263 | 12.35326 | 4008 ft | 236 kts | 17° |
| 2026-04-25 20:57 | 55.43738 | 12.36633 | 4008 ft | 239 kts | 31° |
| 2026-04-25 20:57 | 55.45051 | 12.38471 | 3891 ft | 242 kts | 38° |
| 2026-04-25 20:58 | 55.46278 | 12.40428 | 3578 ft | 240 kts | 37° |
| 2026-04-25 20:58 | 55.47530 | 12.42360 | 3196 ft | 238 kts | 36° |
| 2026-04-25 20:58 | 55.48779 | 12.44259 | 2837 ft | 236 kts | 36° |
| 2026-04-25 20:58 | 55.49983 | 12.46112 | 2500 ft | 221 kts | 36° |
| 2026-04-25 20:59 | 55.51089 | 12.47823 | 2197 ft | 203 kts | 35° |
| 2026-04-25 20:59 | 55.52113 | 12.49396 | 1930 ft | 187 kts | 34° |
| 2026-04-25 20:59 | 55.53055 | 12.50846 | 1696 ft | 172 kts | 33° |
| 2026-04-25 20:59 | 55.53920 | 12.52179 | 1455 ft | 159 kts | 33° |
| 2026-04-25 21:00 | 55.54721 | 12.53414 | 1239 ft | 144 kts | 32° |
| 2026-04-25 21:00 | 55.54961 | 12.53783 | 1181 ft | 139 kts | 32° |
| 2026-04-25 21:00 | 55.56769 | 12.56516 | 682 ft | 126 kts | 32° |
| 2026-04-25 21:01 | 55.57418 | 12.57560 | 521 ft | 126 kts | 36° |
| 2026-04-25 21:01 | 55.58068 | 12.58568 | 355 ft | 123 kts | 33° |
| 2026-04-25 21:01 | 55.58717 | 12.59575 | 210 ft | 123 kts | 34° |
| 2026-04-25 21:01 | 55.59354 | 12.60555 | 44 ft | 121 kts | 34° |
| 2026-04-25 21:02 | 55.59887 | 12.61368 | 27 ft | 72 kts | 41° |
| 2026-04-25 21:02 | 55.60150 | 12.61778 | 29 ft | 42 kts | 41° |
| 2026-04-25 21:02 | 55.60362 | 12.62111 | 27 ft | 37 kts | 42° |
| 2026-04-25 21:02 | 55.60549 | 12.62411 | 30 ft | 35 kts | 46° |
| 2026-04-25 21:03 | 55.60674 | 12.62783 | 28 ft | 36 kts | 70° |
| 2026-04-25 21:03 | 55.60739 | 12.63126 | 27 ft | 28 kts | 71° |
| 2026-04-25 21:03 | 55.60796 | 12.63417 | 27 ft | 24 kts | 71° |
| 2026-04-25 21:03 | 55.60885 | 12.63653 | 28 ft | 24 kts | 37° |
| 2026-04-25 21:04 | 55.61012 | 12.63802 | 28 ft | 23 kts | 33° |
| 2026-04-25 21:04 | 55.61149 | 12.63958 | 28 ft | 24 kts | 33° |
| 2026-04-25 21:04 | 55.61294 | 12.64127 | 28 ft | 26 kts | 33° |
| 2026-04-25 21:04 | 55.61449 | 12.64303 | 28 ft | 27 kts | 33° |
| 2026-04-25 21:05 | 55.61610 | 12.64488 | 28 ft | 28 kts | 33° |
| 2026-04-25 21:05 | 55.61778 | 12.64682 | 28 ft | 29 kts | 33° |
| 2026-04-25 21:05 | 55.61934 | 12.64859 | 27 ft | 18 kts | 33° |
| 2026-04-25 21:05 | 55.62010 | 12.64983 | 27 ft | 11 kts | 73° |
| 2026-04-25 21:06 | 55.61985 | 12.65084 | 26 ft | 16 kts | 123° |
| 2026-04-25 21:06 | 55.61906 | 12.65296 | 31 ft | 23 kts | 123° |
| 2026-04-25 21:06 | 55.61860 | 12.65421 | 31 ft | 0 kts | 123° |
| 2026-04-25 21:06 | 55.61859 | 12.65425 | 31 ft | 1 kts | 123° |
| 2026-04-25 21:07 | 55.61830 | 12.65503 | 27 ft | 10 kts | 123° |
| 2026-04-25 21:07 | 55.61787 | 12.65621 | 28 ft | 14 kts | 123° |
| 2026-04-25 21:07 | 55.61710 | 12.65828 | 30 ft | 24 kts | 123° |
| 2026-04-25 21:07 | 55.61603 | 12.66117 | 29 ft | 30 kts | 123° |
| 2026-04-25 21:08 | 55.61480 | 12.66444 | 27 ft | 33 kts | 123° |
| 2026-04-25 21:08 | 55.61356 | 12.66780 | 28 ft | 29 kts | 123° |
| 2026-04-25 21:08 | 55.61283 | 12.67004 | 29 ft | 16 kts | 99° |
| 2026-04-25 21:08 | 55.61354 | 12.67122 | 28 ft | 16 kts | 15° |
| 2026-04-25 21:09 | 55.61595 | 12.67070 | 28 ft | 18 kts | 348° |
| 2026-04-25 21:09 | 55.61677 | 12.67041 | 28 ft | 12 kts | 348° |
| 2026-04-25 21:09 | 55.61765 | 12.67009 | 28 ft | 14 kts | 348° |
| 2026-04-25 21:10 | 55.61868 | 12.66972 | 28 ft | 16 kts | 349° |
| 2026-04-25 21:10 | 55.61930 | 12.66950 | 28 ft | 9 kts | 348° |
| 2026-04-25 21:10 | 55.61997 | 12.66932 | 28 ft | 9 kts | 359° |
| 2026-04-25 21:10 | 55.62036 | 12.66939 | 28 ft | 3 kts | 25° |
| 2026-04-25 21:11 | 55.62052 | 12.66993 | 28 ft | 7 kts | 68° |
| 2026-04-25 21:11 | 55.62060 | 12.67039 | 28 ft | 2 kts | 77° |
| 2026-04-25 21:11 | 55.62063 | 12.67058 | 28 ft | 0 kts | 77° |